Time;durP1;ratioP1;P1;durP2;ratioP2;P2;SDS_P1;SDS_P2;PMS_P1;PMS_P2;Temp;Humidity;BMP_temperature;BMP_pressure;BME280_temperature;BME280_humidity;BME280_pressure;Samples;Min_cycle;Max_cycle;Signal;HPM_P1;HPM_P2
2022/09/21 00:01:16;;;;;;;6.53;4.37;;;;;;;8.40;100.00;100712.91;5570868;32;34050;-70
2022/09/21 00:04:19;;;;;;;5.30;4.70;;;;;;;8.46;100.00;100721.09;5570665;32;34062;-70
2022/09/21 00:07:21;;;;;;;5.03;4.40;;;;;;;8.50;100.00;100724.28;5570841;32;33966;-70
2022/09/21 00:10:24;;;;;;;6.37;4.20;;;;;;;8.49;100.00;100722.63;5570968;32;34867;-70
2022/09/21 00:13:27;;;;;;;4.75;4.22;;;;;;;8.54;100.00;100715.06;5570727;32;33872;-69
2022/09/21 00:16:30;;;;;;;4.75;4.25;;;;;;;8.55;100.00;100714.09;5570637;32;33865;-70
2022/09/21 00:19:34;;;;;;;4.45;4.05;;;;;;;8.53;100.00;100722.16;5570956;32;34156;-71
2022/09/21 00:22:37;;;;;;;5.00;4.25;;;;;;;8.48;100.00;100721.78;5556826;32;32404;-71
2022/09/21 00:25:39;;;;;;;4.40;3.95;;;;;;;8.43;100.00;100728.47;5570714;32;34805;-70
2022/09/21 00:28:43;;;;;;;4.68;3.67;;;;;;;8.38;100.00;100722.78;5570357;32;34069;-70
2022/09/21 00:31:45;;;;;;;5.75;3.90;;;;;;;8.38;100.00;100720.16;5570576;32;34541;-70
2022/09/21 00:34:49;;;;;;;4.37;3.75;;;;;;;8.32;100.00;100724.22;5556859;32;32675;-70
2022/09/21 00:37:51;;;;;;;5.97;4.12;;;;;;;8.32;100.00;100723.38;5557204;32;33864;-70
2022/09/21 00:40:54;;;;;;;5.35;3.97;;;;;;;8.30;100.00;100723.53;5570754;32;34207;-70
2022/09/21 00:44:14;;;;;;;5.65;4.00;;;;;;;8.27;100.00;100729.09;5570422;32;33933;-69
2022/09/21 00:47:26;;;;;;;6.18;4.35;;;;;;;8.22;100.00;100720.75;5570423;32;33964;-69
2022/09/21 00:50:29;;;;;;;4.90;3.95;;;;;;;8.13;100.00;100726.91;5570436;32;34654;-70
2022/09/21 00:53:34;;;;;;;5.62;4.25;;;;;;;8.13;100.00;100727.72;5570541;32;33879;-70
2022/09/21 00:56:37;;;;;;;4.40;3.53;;;;;;;8.11;100.00;100734.12;5570741;32;34590;-70
2022/09/21 00:59:43;;;;;;;5.87;4.40;;;;;;;8.12;100.00;100735.81;5569945;32;34710;-70
2022/09/21 01:02:46;;;;;;;5.82;4.20;;;;;;;8.15;100.00;100738.97;5556768;32;34553;-70
2022/09/21 01:05:49;;;;;;;4.37;3.80;;;;;;;8.20;100.00;100735.91;5570694;32;34364;-70
2022/09/21 01:08:55;;;;;;;4.70;3.97;;;;;;;8.26;100.00;100733.53;5570283;32;34347;-70
2022/09/21 01:12:10;;;;;;;4.50;4.10;;;;;;;8.36;100.00;100740.62;5570078;32;34087;-69
2022/09/21 01:15:24;;;;;;;5.70;4.37;;;;;;;8.37;100.00;100735.19;5570183;32;34534;-70
2022/09/21 01:18:31;;;;;;;4.72;4.20;;;;;;;8.33;100.00;100733.81;5570190;32;34028;-70
2022/09/21 01:21:48;;;;;;;5.30;4.12;;;;;;;8.34;100.00;100734.63;5570329;32;34537;-70
2022/09/21 01:25:24;;;;;;;5.22;4.07;;;;;;;8.40;100.00;100728.78;5570407;32;34067;-70
2022/09/21 01:28:36;;;;;;;4.93;4.00;;;;;;;8.38;100.00;100720.97;5549351;32;34584;-68
2022/09/21 01:31:46;;;;;;;4.43;3.80;;;;;;;8.36;100.00;100735.34;5570376;32;34584;-67
2022/09/21 01:34:59;;;;;;;5.32;4.30;;;;;;;8.38;100.00;100736.84;5569981;32;34612;-69
2022/09/21 01:38:07;;;;;;;5.35;4.20;;;;;;;8.41;100.00;100743.66;5570363;32;35246;-69
2022/09/21 01:41:13;;;;;;;7.93;4.55;;;;;;;8.39;100.00;100740.31;5569851;32;34667;-68
2022/09/21 01:44:20;;;;;;;6.03;4.53;;;;;;;8.39;100.00;100735.03;5569792;32;34207;-69
2022/09/21 01:47:24;;;;;;;4.55;4.00;;;;;;;8.38;100.00;100744.78;5556655;32;33961;-69
2022/09/21 01:50:33;;;;;;;5.07;4.20;;;;;;;8.30;100.00;100747.31;5570322;32;34384;-70
2022/09/21 01:54:01;;;;;;;5.05;4.37;;;;;;;8.35;100.00;100742.44;5569910;32;34029;-69
2022/09/21 01:57:16;;;;;;;5.28;4.30;;;;;;;8.38;100.00;100751.87;5569796;32;33885;-69
2022/09/21 02:00:18;;;;;;;5.12;4.43;;;;;;;8.34;100.00;100743.41;5570091;32;33855;-70
2022/09/21 02:03:31;;;;;;;5.55;4.10;;;;;;;8.33;100.00;100743.56;5569634;32;34515;-69
2022/09/21 02:06:35;;;;;;;5.20;4.35;;;;;;;8.33;100.00;100754.16;5569628;32;34044;-69
2022/09/21 02:09:38;;;;;;;4.90;4.32;;;;;;;8.31;100.00;100750.78;5568478;32;35121;-69
2022/09/21 02:12:41;;;;;;;5.07;4.47;;;;;;;8.33;100.00;100754.16;5569773;32;35236;-68
2022/09/21 02:15:49;;;;;;;4.70;4.20;;;;;;;8.45;100.00;100755.63;5569411;32;34470;-68
2022/09/21 02:19:36;;;;;;;5.40;4.60;;;;;;;8.47;100.00;100753.66;5569496;32;34761;-69
2022/09/21 02:22:46;;;;;;;5.87;4.32;;;;;;;8.25;100.00;100755.66;5513922;32;33833;-68
2022/09/21 02:26:08;;;;;;;6.15;4.20;;;;;;;8.32;100.00;100747.19;5569292;32;34686;-69
2022/09/21 02:29:24;;;;;;;5.40;4.37;;;;;;;8.23;100.00;100760.22;5569210;32;33948;-69
2022/09/21 02:32:55;;;;;;;5.55;4.62;;;;;;;8.18;100.00;100757.19;5569566;32;33942;-69
2022/09/21 02:36:14;;;;;;;6.05;4.57;;;;;;;8.14;100.00;100760.25;5545733;32;35195;-69
2022/09/21 02:39:27;;;;;;;5.55;4.45;;;;;;;8.11;100.00;100757.91;5569210;32;35328;-69
2022/09/21 02:42:37;;;;;;;6.72;4.82;;;;;;;8.13;100.00;100753.31;5569206;32;35148;-69
2022/09/21 02:45:50;;;;;;;;;;;;;;;8.03;100.00;100757.81;5569416;32;34710;-69
2022/09/21 02:49:03;;;;;;;4.87;4.37;;;;;;;7.98;100.00;100760.88;5569342;32;35070;-69
2022/09/21 02:52:13;;;;;;;6.43;4.62;;;;;;;7.97;100.00;100763.63;5569299;32;34201;-69
2022/09/21 02:55:16;;;;;;;5.12;4.60;;;;;;;7.94;100.00;100764.75;5555631;32;34136;-69
2022/09/21 02:58:20;;;;;;;4.82;4.30;;;;;;;7.89;100.00;100769.63;5555273;32;33745;-69
2022/09/21 03:01:25;;;;;;;6.50;4.35;;;;;;;7.90;100.00;100762.53;5568765;32;34622;-69
2022/09/21 03:04:28;;;;;;;6.97;4.85;;;;;;;7.91;100.00;100769.47;5569101;32;33969;-69
2022/09/21 03:07:31;;;;;;;6.03;4.32;;;;;;;7.98;100.00;100775.87;5568628;32;33899;-67
2022/09/21 03:10:39;;;;;;;7.55;4.90;;;;;;;8.00;100.00;100771.28;5568707;32;34068;-67
2022/09/21 03:13:42;;;;;;;5.60;4.85;;;;;;;7.99;100.00;100770.44;5568546;32;34601;-69
2022/09/21 03:16:44;;;;;;;5.30;4.62;;;;;;;8.03;100.00;100785.06;5568515;32;33823;-69
2022/09/21 03:19:47;;;;;;;4.97;4.45;;;;;;;7.99;100.00;100786.28;5568702;32;34788;-70
2022/09/21 03:22:50;;;;;;;5.32;4.72;;;;;;;7.91;100.00;100785.34;5570596;32;34046;-69
2022/09/21 03:25:53;;;;;;;5.28;4.62;;;;;;;7.89;100.00;100785.47;5571234;32;34480;-68
2022/09/21 03:28:56;;;;;;;5.87;4.72;;;;;;;7.78;100.00;100783.00;5570904;32;34022;-68
2022/09/21 03:31:59;;;;;;;5.62;5.03;;;;;;;7.71;100.00;100788.00;5571122;32;34555;-68
2022/09/21 03:35:01;;;;;;;7.30;4.70;;;;;;;7.66;100.00;100786.72;5570910;32;34111;-68
2022/09/21 03:38:04;;;;;;;5.80;4.82;;;;;;;7.65;100.00;100793.00;5571064;32;33981;-70
2022/09/21 03:41:07;;;;;;;5.50;4.40;;;;;;;7.71;100.00;100787.16;5570957;32;35295;-69
2022/09/21 03:44:09;;;;;;;5.43;4.47;;;;;;;7.64;100.00;100791.34;5570909;32;33831;-70
2022/09/21 03:47:12;;;;;;;5.87;5.00;;;;;;;7.55;100.00;100787.69;5570951;32;34010;-69
2022/09/21 03:50:15;;;;;;;6.07;4.65;;;;;;;7.59;100.00;100798.84;5570813;32;34911;-69
2022/09/21 03:53:17;;;;;;;5.53;4.90;;;;;;;7.58;100.00;100797.16;5570982;32;34147;-69
2022/09/21 03:56:20;;;;;;;6.28;5.05;;;;;;;7.63;100.00;100801.06;5570699;32;34028;-69
2022/09/21 03:59:23;;;;;;;6.55;5.20;;;;;;;7.62;100.00;100793.28;5571147;32;33962;-71
2022/09/21 04:02:26;;;;;;;5.78;5.18;;;;;;;7.61;100.00;100804.78;5571156;32;33978;-69
2022/09/21 04:05:29;;;;;;;6.15;5.10;;;;;;;7.64;100.00;100804.53;5557124;32;34231;-69
2022/09/21 04:08:32;;;;;;;6.75;4.90;;;;;;;7.63;100.00;100798.41;5570740;32;34573;-69
2022/09/21 04:11:35;;;;;;;7.07;5.30;;;;;;;7.61;100.00;100807.44;5557107;32;34687;-69
2022/09/21 04:14:37;;;;;;;6.47;5.25;;;;;;;7.64;100.00;100799.25;5570777;32;34334;-70
2022/09/21 04:17:40;;;;;;;7.82;5.68;;;;;;;7.61;100.00;100803.00;5556547;32;32457;-70
2022/09/21 04:20:43;;;;;;;8.40;5.22;;;;;;;7.64;100.00;100810.66;5570351;32;34450;-70
2022/09/21 04:23:46;;;;;;;8.40;5.53;;;;;;;7.62;100.00;100801.19;5557000;32;33964;-69
2022/09/21 04:26:49;;;;;;;5.90;5.30;;;;;;;7.65;100.00;100803.56;5570639;32;33968;-70
2022/09/21 04:29:52;;;;;;;6.65;5.55;;;;;;;7.69;100.00;100807.59;5570288;32;34048;-70
2022/09/21 04:32:54;;;;;;;7.97;5.22;;;;;;;7.74;100.00;100819.41;5556216;32;33174;-69
2022/09/21 04:35:58;;;;;;;5.57;4.97;;;;;;;7.73;100.00;100815.09;5570503;32;34170;-69
2022/09/21 04:39:00;;;;;;;9.00;5.45;;;;;;;7.77;100.00;100819.13;5556725;32;34666;-69
2022/09/21 04:42:04;;;;;;;7.50;5.12;;;;;;;7.79;100.00;100811.06;5570423;32;34370;-69
2022/09/21 04:45:07;;;;;;;6.95;5.37;;;;;;;7.80;100.00;100825.94;5569918;32;34045;-70
2022/09/21 04:48:10;;;;;;;6.45;5.50;;;;;;;7.79;100.00;100829.56;5569806;32;34295;-71
2022/09/21 04:51:15;;;;;;;8.15;5.53;;;;;;;7.74;100.00;100834.44;5556193;32;34896;-71
2022/09/21 04:54:18;;;;;;;6.05;5.30;;;;;;;7.79;100.00;100838.28;5569827;32;34685;-70
2022/09/21 04:57:20;;;;;;;6.53;5.12;;;;;;;7.83;100.00;100841.50;5569966;32;35178;-70
2022/09/21 05:00:23;;;;;;;6.10;5.25;;;;;;;7.73;100.00;100843.31;5555931;32;34773;-70
2022/09/21 05:03:26;;;;;;;6.78;6.03;;;;;;;7.71;100.00;100837.31;5571228;32;34054;-70
2022/09/21 05:06:31;;;;;;;9.18;5.70;;;;;;;7.83;100.00;100841.50;5570484;32;33912;-69
2022/09/21 05:12:58;;;;;;;7.07;5.50;;;;;;;7.90;100.00;100834.69;5570482;32;35314;-70
2022/09/21 05:16:01;;;;;;;8.38;5.57;;;;;;;8.03;100.00;100831.78;5570121;32;33928;-70
2022/09/21 05:19:06;;;;;;;8.75;5.68;;;;;;;8.16;100.00;100845.53;5556247;32;33255;-69
2022/09/21 05:22:08;;;;;;;8.40;5.32;;;;;;;8.26;100.00;100841.06;5569868;32;34335;-69
2022/09/21 05:25:11;;;;;;;10.98;5.22;;;;;;;8.31;100.00;100843.31;5570150;32;33890;-69
2022/09/21 05:28:15;;;;;;;6.22;5.40;;;;;;;8.27;100.00;100845.38;5555984;32;34438;-69
2022/09/21 05:31:49;;;;;;;7.00;5.18;;;;;;;8.35;100.00;100850.81;5555897;32;34222;-70
2022/09/21 05:35:22;;;;;;;6.75;5.65;;;;;;;8.43;100.00;100855.38;5555548;32;32641;-70
2022/09/21 05:38:26;;;;;;;6.50;5.03;;;;;;;8.45;100.00;100851.63;5557402;32;35284;-68
2022/09/21 05:41:29;;;;;;;5.90;5.12;;;;;;;8.60;100.00;100852.84;5569408;32;34636;-69
2022/09/21 05:44:32;;;;;;;6.22;4.90;;;;;;;8.70;100.00;100851.00;5569425;32;34607;-70
2022/09/21 05:47:54;;;;;;;6.53;4.90;;;;;;;8.88;100.00;100856.38;5568901;32;34882;-70
2022/09/21 05:51:05;;;;;;;7.68;5.20;;;;;;;8.96;100.00;100858.28;5569147;32;34345;-70
2022/09/21 05:54:19;;;;;;;6.90;5.22;;;;;;;8.94;100.00;100865.53;5568608;32;34345;-71
2022/09/21 05:58:02;;;;;;;7.07;5.07;;;;;;;9.10;100.00;100863.94;5568610;32;34631;-69
2022/09/21 06:01:33;;;;;;;6.43;5.22;;;;;;;9.13;100.00;100857.53;5568599;32;33990;-70
2022/09/21 06:04:39;;;;;;;6.55;5.20;;;;;;;9.45;100.00;100863.19;5567791;32;34677;-68
2022/09/21 06:07:44;;;;;;;6.95;4.72;;;;;;;9.51;100.00;100867.06;5568414;32;34010;-70
2022/09/21 06:10:47;;;;;;;6.70;5.70;;;;;;;9.27;100.00;100869.44;5568453;32;34302;-71
2022/09/21 06:13:50;;;;;;;7.37;6.32;;;;;;;8.97;100.00;100876.66;5568474;32;34117;-69
2022/09/21 06:16:52;;;;;;;7.85;6.87;;;;;;;9.00;100.00;100876.41;5568924;32;34085;-70
2022/09/21 06:19:55;;;;;;;8.60;7.10;;;;;;;8.88;100.00;100874.06;5555557;32;34082;-71
2022/09/21 06:23:03;;;;;;;8.75;7.47;;;;;;;8.93;100.00;100877.94;5568960;32;34050;-69
2022/09/21 06:26:06;;;;;;;10.10;7.32;;;;;;;8.97;100.00;100884.59;5569015;32;34279;-70
2022/09/21 06:29:09;;;;;;;8.98;7.97;;;;;;;8.90;100.00;100875.59;5554710;32;35220;-70
2022/09/21 06:32:11;;;;;;;10.00;7.57;;;;;;;9.01;100.00;100885.97;5569094;32;33961;-69
2022/09/21 06:35:14;;;;;;;8.52;7.30;;;;;;;9.14;100.00;100885.66;5568755;32;33981;-70
2022/09/21 06:38:16;;;;;;;8.05;6.80;;;;;;;9.25;100.00;100890.75;5569184;32;34252;-69
2022/09/21 06:41:19;;;;;;;7.40;6.37;;;;;;;9.64;100.00;100901.13;5568686;32;34562;-70
2022/09/21 06:44:23;;;;;;;8.90;6.00;;;;;;;10.14;100.00;100893.50;5568126;32;33867;-69
2022/09/21 06:47:25;;;;;;;6.57;5.47;;;;;;;10.93;99.39;100894.31;5554660;32;33934;-69
2022/09/21 06:50:28;;;;;;;7.62;5.05;;;;;;;11.41;96.08;100898.16;5568203;32;34358;-70
2022/09/21 06:53:32;;;;;;;7.03;5.10;;;;;;;10.96;97.36;100893.12;5554677;32;34689;-69
2022/09/21 06:56:35;;;;;;;7.18;5.35;;;;;;;11.17;97.16;100889.13;5568744;32;34296;-70
2022/09/21 06:59:38;;;;;;;7.18;4.55;;;;;;;11.33;97.47;100897.13;5556820;32;34664;-69
2022/09/21 07:02:44;;;;;;;8.27;4.62;;;;;;;11.91;91.18;100896.31;5557240;32;34065;-69
2022/09/21 07:05:48;;;;;;;5.45;4.40;;;;;;;11.64;92.79;100894.75;5570427;32;34736;-68
2022/09/21 07:08:52;;;;;;;7.65;4.82;;;;;;;11.84;91.28;100898.00;5556729;32;34547;-70
2022/09/21 07:12:15;;;;;;;7.05;4.25;;;;;;;11.80;93.06;100891.34;5570177;32;34643;-70
2022/09/21 07:15:20;;;;;;;5.60;3.67;;;;;;;12.54;87.61;100901.00;5556578;32;32436;-68
2022/09/21 07:18:23;;;;;;;4.75;3.83;;;;;;;13.29;82.81;100898.88;5556684;32;32811;-68
2022/09/21 07:21:27;;;;;;;4.95;4.00;;;;;;;13.72;79.67;100897.50;5556131;32;32964;-68
2022/09/21 07:24:30;;;;;;;5.95;3.50;;;;;;;13.39;83.79;100897.69;5556791;32;34379;-68
2022/09/21 07:27:33;;;;;;;4.18;3.28;;;;;;;14.72;75.78;100894.56;5569928;32;34305;-68
2022/09/21 07:30:37;;;;;;;7.32;3.00;;;;;;;14.59;74.37;100897.03;5570738;32;33956;-69
2022/09/21 07:33:41;;;;;;;5.20;3.00;;;;;;;14.58;74.91;100906.06;5570825;32;34078;-69
2022/09/21 07:36:44;;;;;;;5.90;2.90;;;;;;;14.03;76.15;100911.66;5570743;32;34325;-68
2022/09/21 07:39:47;;;;;;;5.22;2.85;;;;;;;14.23;75.32;100904.00;5570999;32;33883;-68
2022/09/21 07:42:57;;;;;;;4.43;2.80;;;;;;;15.42;73.80;100910.16;5571499;32;32783;-69
2022/09/21 07:46:00;;;;;;;4.53;2.70;;;;;;;16.67;66.65;100910.69;5570903;32;34675;-69
2022/09/21 07:49:04;;;;;;;3.62;2.85;;;;;;;15.66;68.94;100906.38;5557107;32;32850;-70
2022/09/21 07:52:08;;;;;;;3.78;2.90;;;;;;;14.13;75.44;100916.75;5570726;32;34088;-70
2022/09/21 07:55:13;;;;;;;3.40;3.10;;;;;;;14.53;74.18;100912.94;5557191;32;34019;-69
2022/09/21 08:01:40;;;;;;;4.20;2.60;;;;;;;16.70;66.49;100913.78;5570575;32;34570;-69
2022/09/21 08:04:42;;;;;;;4.43;2.53;;;;;;;17.97;60.87;100916.94;5570680;32;33913;-70
2022/09/21 08:07:45;;;;;;;9.38;2.90;;;;;;;16.74;63.39;100904.38;5555234;32;34162;-67
2022/09/21 08:10:48;;;;;;;3.15;2.50;;;;;;;17.44;61.63;100913.22;5569895;32;34445;-67
2022/09/21 08:13:59;;;;;;;4.60;2.62;;;;;;;18.85;56.89;100918.47;5569825;32;34276;-68
2022/09/21 08:17:02;;;;;;;4.50;2.42;;;;;;;17.13;61.34;100911.00;5569779;32;34695;-68
2022/09/21 08:20:05;;;;;;;3.62;2.10;;;;;;;17.61;59.77;100918.09;5569799;32;33963;-69
2022/09/21 08:23:08;;;;;;;2.33;2.03;;;;;;;17.19;60.04;100915.56;5569578;32;35241;-69
2022/09/21 08:26:18;;;;;;;3.25;2.00;;;;;;;16.88;61.96;100910.63;5569421;32;34049;-67
2022/09/21 08:29:23;;;;;;;6.05;2.00;;;;;;;19.02;55.15;100911.66;5569431;32;34113;-68
2022/09/21 08:32:26;;;;;;;4.62;2.33;;;;;;;19.45;53.72;100912.81;5569554;32;34077;-69
2022/09/21 08:35:56;;;;;;;3.65;2.20;;;;;;;16.20;61.96;100920.12;5569291;32;34794;-67
2022/09/21 08:38:59;;;;;;;3.62;1.87;;;;;;;17.77;58.41;100922.25;5543024;32;32650;-69
2022/09/21 08:42:34;;;;;;;3.65;2.12;;;;;;;16.35;62.66;100915.56;5569117;32;34033;-68
2022/09/21 08:45:45;;;;;;;3.17;2.40;;;;;;;17.73;59.42;100913.78;5555245;32;32989;-68
2022/09/21 08:48:57;;;;;;;4.50;2.20;;;;;;;16.95;61.96;100916.84;5555782;32;33285;-68
2022/09/21 08:52:04;;;;;;;2.40;1.90;;;;;;;15.65;65.85;100918.91;5555574;32;34380;-68
2022/09/21 08:55:18;;;;;;;5.57;2.37;;;;;;;14.75;68.93;100914.75;5569414;32;35286;-67
2022/09/21 08:58:23;;;;;;;4.30;2.33;;;;;;;14.35;72.72;100921.25;5569337;32;33882;-68
2022/09/21 09:01:35;;;;;;;3.83;2.70;;;;;;;14.22;73.93;100908.50;5569185;32;34911;-67
2022/09/21 09:04:56;;;;;;;4.32;2.50;;;;;;;14.03;75.66;100916.16;5555653;32;33709;-68
2022/09/21 09:08:23;;;;;;;7.12;2.42;;;;;;;14.18;75.93;100909.06;5569249;32;34140;-67
2022/09/21 09:11:48;;;;;;;4.07;2.33;;;;;;;14.11;77.56;100906.25;5569406;32;34591;-69
2022/09/21 09:15:39;;;;;;;4.15;1.95;;;;;;;14.07;74.59;100909.44;5569121;32;34293;-68
2022/09/21 09:18:52;;;;;;;3.85;2.47;;;;;;;13.91;74.48;100919.22;5555639;32;34285;-68
2022/09/21 09:21:56;;;;;;;3.85;2.53;;;;;;;13.57;76.51;100918.75;5569232;32;35210;-67
2022/09/21 09:25:04;;;;;;;3.72;2.47;;;;;;;13.52;76.95;100906.94;5568947;32;34551;-67
2022/09/21 09:28:34;;;;;;;3.97;2.50;;;;;;;13.41;77.88;100919.63;5555297;32;33320;-67
2022/09/21 09:31:38;;;;;;;;;;;;;;;13.32;78.22;100910.00;5569517;32;34554;-67
2022/09/21 09:34:49;;;;;;;5.78;2.50;;;;;;;13.31;78.43;100911.00;5555495;32;34824;-68
2022/09/21 09:37:56;;;;;;;3.20;2.50;;;;;;;13.40;77.77;100911.84;5569625;32;33918;-68
2022/09/21 09:41:37;;;;;;;3.22;2.53;;;;;;;13.52;78.23;100913.09;5555969;32;32426;-67
2022/09/21 09:44:52;;;;;;;4.47;3.17;;;;;;;13.69;76.47;100914.69;5569995;32;35314;-67
2022/09/21 09:48:27;;;;;;;4.90;2.45;;;;;;;13.79;77.82;100911.81;5570006;32;33865;-68
2022/09/21 09:51:37;;;;;;;3.97;2.35;;;;;;;13.79;77.00;100909.97;5555957;32;32693;-67
2022/09/21 09:54:40;;;;;;;;;;;;;;;13.73;77.05;100910.66;5556542;32;33716;-68
2022/09/21 09:57:42;;;;;;;2.87;2.15;;;;;;;13.66;77.51;100908.84;5569933;32;34284;-68
2022/09/21 10:00:50;;;;;;;3.17;2.20;;;;;;;13.65;77.16;100908.03;5569661;32;34000;-67
2022/09/21 10:04:09;;;;;;;3.58;2.10;;;;;;;13.71;77.16;100898.50;5556274;32;34114;-67
2022/09/21 10:07:18;;;;;;;4.10;2.10;;;;;;;13.84;76.15;100898.78;5569476;32;34175;-68
2022/09/21 10:10:21;;;;;;;3.20;1.92;;;;;;;13.87;76.80;100888.56;5569545;32;33390;-67
2022/09/21 10:13:32;;;;;;;3.12;2.28;;;;;;;14.05;75.62;100895.44;5569337;32;33904;-65
2022/09/21 10:16:42;;;;;;;3.65;2.05;;;;;;;14.21;74.81;100890.84;5569373;32;35144;-66
2022/09/21 10:19:46;;;;;;;3.72;1.90;;;;;;;14.44;75.15;100884.66;5569283;32;34055;-67
2022/09/21 10:22:55;;;;;;;3.33;1.90;;;;;;;14.35;74.16;100886.53;5569373;32;33866;-64
2022/09/21 10:25:59;;;;;;;2.45;1.77;;;;;;;14.74;74.89;100883.72;5569174;32;34691;-68
2022/09/21 10:29:24;;;;;;;2.47;1.62;;;;;;;14.56;71.80;100876.06;5568635;32;34122;-69
2022/09/21 10:32:28;;;;;;;2.45;1.73;;;;;;;14.80;69.66;100874.97;5567477;32;33802;-67
2022/09/21 10:35:47;;;;;;;3.90;1.90;;;;;;;15.00;70.68;100868.09;5568927;32;34713;-70
2022/09/21 10:38:51;;;;;;;2.28;1.80;;;;;;;15.72;68.33;100878.03;5554540;32;33017;-68
2022/09/21 10:41:57;;;;;;;2.15;1.62;;;;;;;15.25;69.06;100875.81;5555105;32;33959;-68
2022/09/21 10:45:16;;;;;;;3.60;1.52;;;;;;;15.41;69.09;100871.06;5555209;32;35349;-66
2022/09/21 10:48:22;;;;;;;4.50;1.50;;;;;;;15.76;67.37;100873.97;5568852;32;34549;-67
2022/09/21 10:51:30;;;;;;;1.70;1.37;;;;;;;18.53;57.59;100866.41;5542037;32;32901;-69
2022/09/21 10:54:33;;;;;;;1.50;1.25;;;;;;;21.12;48.18;100880.69;5555220;32;33925;-68
2022/09/21 10:57:40;;;;;;;1.35;1.00;;;;;;;19.29;48.63;100861.28;5568520;32;34022;-68
2022/09/21 11:00:46;;;;;;;1.20;0.90;;;;;;;19.88;48.03;100869.94;5554865;32;33507;-69
2022/09/21 11:04:04;;;;;;;1.15;1.00;;;;;;;23.93;39.59;100878.09;5554155;32;33167;-69
2022/09/21 11:07:54;;;;;;;1.15;0.90;;;;;;;24.00;37.30;100869.84;5568008;32;33951;-69
2022/09/21 11:11:03;;;;;;;1.10;1.00;;;;;;;19.71;45.97;100862.56;5469893;32;34758;-68
2022/09/21 11:14:20;;;;;;;2.15;1.10;;;;;;;18.87;48.91;100859.97;5457602;32;33824;-70
2022/09/21 11:17:38;;;;;;;1.52;0.93;;;;;;;18.37;50.17;100859.56;5470121;32;35163;-69
2022/09/21 11:20:53;;;;;;;1.80;1.08;;;;;;;17.93;51.63;100867.37;5469668;32;34140;-69
2022/09/21 11:24:09;;;;;;;0.95;0.90;;;;;;;17.07;53.32;100858.16;5444481;32;34706;-67
2022/09/21 11:27:20;;;;;;;3.78;1.10;;;;;;;17.25;52.17;100850.41;5456465;32;33218;-68
2022/09/21 11:30:23;;;;;;;1.48;0.95;;;;;;;17.23;53.31;100858.66;5469579;32;34532;-69
2022/09/21 11:33:30;;;;;;;1.15;1.00;;;;;;;17.08;54.94;100841.91;5457261;32;33971;-68
2022/09/21 11:36:57;;;;;;;1.73;0.90;;;;;;;19.28;49.86;100832.72;5457277;32;33888;-70
2022/09/21 11:40:16;;;;;;;1.25;0.80;;;;;;;21.84;42.07;100835.75;5469883;32;33969;-68
2022/09/21 11:43:34;;;;;;;1.40;0.77;;;;;;;24.63;35.49;100840.53;5465083;32;33988;-70
2022/09/21 11:46:37;;;;;;;1.50;0.80;;;;;;;23.79;35.93;100838.81;5544637;32;34162;-67
2022/09/21 11:49:55;;;;;;;8.00;0.93;;;;;;;24.80;34.82;100845.91;5537615;32;33903;-68
2022/09/21 11:53:27;;;;;;;1.37;0.70;;;;;;;27.03;29.19;100834.53;5539941;32;33938;-69
2022/09/21 11:57:15;;;;;;;1.05;0.60;;;;;;;28.51;27.13;100842.78;5551185;32;34034;-70
2022/09/21 12:00:20;;;;;;;0.73;0.60;;;;;;;23.72;32.77;100824.63;5465403;32;33025;-67
2022/09/21 12:03:34;;;;;;;2.03;0.70;;;;;;;20.22;39.98;100814.78;5550514;32;33870;-69
2022/09/21 12:06:49;;;;;;;6.97;0.70;;;;;;;23.65;34.50;100824.78;5551231;32;33946;-68
2022/09/21 12:09:51;;;;;;;3.12;0.60;;;;;;;24.91;32.27;100808.91;5551191;32;34471;-70
2022/09/21 12:13:11;;;;;;;1.98;0.50;;;;;;;26.55;31.01;100803.75;5536793;32;33082;-70
2022/09/21 12:16:18;;;;;;;1.98;0.60;;;;;;;25.23;30.91;100809.84;5537624;32;34151;-70
2022/09/21 12:19:44;;;;;;;1.08;0.55;;;;;;;25.31;29.92;100803.16;5537471;32;34104;-70
2022/09/21 12:22:55;;;;;;;0.70;0.50;;;;;;;26.30;28.96;100796.25;5551082;32;34103;-69
2022/09/21 12:26:00;;;;;;;1.33;0.60;;;;;;;27.67;27.77;100795.00;5551127;32;34593;-71
2022/09/21 12:29:24;;;;;;;3.03;0.95;;;;;;;28.18;28.33;100800.47;5564604;32;34117;-70
2022/09/21 12:32:48;;;;;;;3.45;0.70;;;;;;;28.14;28.06;100793.94;5556404;32;32615;-68
2022/09/21 12:36:16;;;;;;;4.70;0.80;;;;;;;25.02;31.85;100794.41;5570522;32;33997;-69
2022/09/21 12:39:38;;;;;;;2.35;0.90;;;;;;;22.89;36.32;100781.81;5569845;32;34574;-67
2022/09/21 12:42:53;;;;;;;2.28;0.70;;;;;;;22.49;38.48;100804.16;5570717;32;35167;-67
2022/09/21 12:46:05;;;;;;;2.10;0.40;;;;;;;22.42;37.03;100798.03;5570546;32;33480;-69
2022/09/21 12:49:16;;;;;;;1.12;0.70;;;;;;;20.96;41.34;100799.56;5570084;32;35458;-69
2022/09/21 12:52:27;;;;;;;3.17;0.98;;;;;;;21.79;37.45;100797.81;5570557;32;34523;-68
2022/09/21 12:55:50;;;;;;;0.68;0.50;;;;;;;25.27;33.05;100799.31;5569668;32;33942;-70
2022/09/21 12:59:21;;;;;;;1.65;0.80;;;;;;;18.76;44.63;100788.03;5570199;32;34049;-68
2022/09/21 13:02:42;;;;;;;2.03;1.10;;;;;;;18.57;46.38;100793.25;5570087;32;34662;-69
2022/09/21 13:06:12;;;;;;;1.50;0.80;;;;;;;18.82;45.25;100788.03;5569882;32;34066;-69
2022/09/21 13:09:19;;;;;;;2.42;0.68;;;;;;;21.13;40.72;100784.38;5555185;32;34091;-67
2022/09/21 13:12:36;;;;;;;1.37;0.77;;;;;;;22.53;38.05;100788.28;5569947;32;35173;-69
2022/09/21 13:15:43;;;;;;;3.25;0.88;;;;;;;21.27;39.73;100774.28;5570227;32;34004;-68
2022/09/21 13:18:55;;;;;;;1.27;0.80;;;;;;;23.07;37.03;100772.69;5556449;32;34685;-69
2022/09/21 13:22:24;;;;;;;2.55;0.70;;;;;;;22.13;37.37;100763.00;5555739;32;33273;-67
2022/09/21 13:25:30;;;;;;;0.83;0.70;;;;;;;21.53;39.61;100771.22;5569417;32;34608;-70
2022/09/21 13:28:51;;;;;;;0.80;0.70;;;;;;;22.26;37.83;100770.91;5555546;32;33846;-68
2022/09/21 13:31:56;;;;;;;3.40;0.95;;;;;;;23.42;35.99;100778.81;5569678;32;35558;-68
2022/09/21 13:35:39;;;;;;;1.02;0.70;;;;;;;26.18;31.68;100775.75;5555617;32;32657;-67
2022/09/21 13:38:42;;;;;;;1.17;0.85;;;;;;;23.08;36.46;100764.34;5569888;32;34650;-68
2022/09/21 13:41:46;;;;;;;4.62;0.90;;;;;;;25.21;32.86;100773.19;5555575;32;32612;-68
2022/09/21 13:45:17;;;;;;;5.97;0.70;;;;;;;24.13;33.72;100771.91;5544368;32;32854;-69
2022/09/21 13:48:28;;;;;;;2.03;0.70;;;;;;;24.72;32.71;100758.69;5555803;32;33533;-69
2022/09/21 13:51:34;;;;;;;1.25;0.60;;;;;;;23.82;34.70;100752.44;5569290;32;33929;-69
2022/09/21 13:54:49;;;;;;;2.22;0.70;;;;;;;25.04;33.18;100763.22;5555670;32;34064;-69
2022/09/21 13:57:55;;;;;;;2.00;0.70;;;;;;;26.51;29.75;100761.00;5569778;32;34005;-68
2022/09/21 14:01:02;;;;;;;0.80;0.50;;;;;;;26.56;29.05;100745.53;5555121;32;34630;-70
2022/09/21 14:04:21;;;;;;;4.90;0.70;;;;;;;25.30;31.13;100767.03;5555482;32;34789;-68
2022/09/21 14:07:29;;;;;;;6.40;0.60;;;;;;;22.97;34.51;100757.06;5553819;32;33725;-68
2022/09/21 14:10:36;;;;;;;1.23;0.80;;;;;;;20.22;39.59;100758.19;5569006;32;34063;-69
2022/09/21 14:13:58;;;;;;;2.37;0.52;;;;;;;20.91;38.41;100765.16;5569188;32;33943;-68
2022/09/21 14:17:02;;;;;;;0.90;0.60;;;;;;;20.06;39.99;100750.66;5568953;32;34679;-67
2022/09/21 14:20:31;;;;;;;1.10;0.70;;;;;;;18.53;44.30;100754.41;5554471;32;32504;-68
2022/09/21 14:23:40;;;;;;;1.05;0.70;;;;;;;17.78;46.73;100750.28;5568528;32;34423;-68
2022/09/21 14:26:42;;;;;;;1.58;0.88;;;;;;;17.12;49.77;100751.16;5554618;32;32541;-68
2022/09/21 14:30:19;;;;;;;1.98;0.80;;;;;;;17.10;50.19;100748.69;5568028;32;34704;-68
2022/09/21 14:33:34;;;;;;;1.65;1.08;;;;;;;16.91;50.81;100752.94;5554281;32;34476;-69
2022/09/21 14:36:44;;;;;;;2.45;0.85;;;;;;;16.75;51.26;100753.28;5568255;32;34848;-68
2022/09/21 14:39:48;;;;;;;2.40;1.73;;;;;;;16.79;50.90;100757.22;5568245;32;35442;-69
2022/09/21 14:42:57;;;;;;;1.65;0.62;;;;;;;16.52;50.67;100758.06;5568644;32;35266;-69
2022/09/21 14:46:07;;;;;;;1.52;0.70;;;;;;;16.37;50.32;100750.16;5568551;32;35254;-69
2022/09/21 14:49:56;;;;;;;1.33;0.82;;;;;;;16.26;50.87;100758.75;5555008;32;34670;-67
2022/09/21 14:53:17;;;;;;;3.08;1.05;;;;;;;16.21;51.00;100752.31;5543188;32;34132;-68